Time;durP1;ratioP1;P1;durP2;ratioP2;P2;SDS_P1;SDS_P2;PMS_P1;PMS_P2;Temp;Humidity;BMP_temperature;BMP_pressure;BME280_temperature;BME280_humidity;BME280_pressure;Samples;Min_cycle;Max_cycle;Signal;HPM_P1;HPM_P2
2021/12/30 00:13:25;;;;;;;102.55;33.15;;;;;;;2.23;100.00;99803.81;713983;1202;114968;-80
2021/12/30 00:28:28;;;;;;;101.33;32.55;;;;;;;2.27;100.00;99807.02;713745;1179;113880;-80
2021/12/30 00:43:30;;;;;;;143.93;42.58;;;;;;;2.48;100.00;99779.83;713989;1199;114326;-79
2021/12/30 00:58:32;;;;;;;92.20;32.80;;;;;;;2.60;100.00;99788.59;714435;1200;114893;-82
2021/12/30 01:13:42;;;;;;;108.18;33.95;;;;;;;2.69;100.00;99800.10;713754;1177;113560;-79
2021/12/30 01:28:45;;;;;;;100.83;32.10;;;;;;;2.67;100.00;99809.75;713663;1200;113922;-80
2021/12/30 01:43:48;;;;;;;104.53;33.70;;;;;;;2.75;100.00;99817.86;713803;1200;113695;-80
2021/12/30 01:58:50;;;;;;;118.57;36.17;;;;;;;2.76;100.00;99814.35;713649;1204;114240;-80
2021/12/30 02:13:53;;;;;;;94.43;31.67;;;;;;;2.76;100.00;99805.73;713817;1200;113810;-80
2021/12/30 02:28:56;;;;;;;99.80;34.23;;;;;;;2.84;100.00;99800.92;713763;1176;113921;-80
2021/12/30 02:43:58;;;;;;;78.95;28.58;;;;;;;2.93;100.00;99817.62;713848;1177;113718;-80
2021/12/30 02:59:01;;;;;;;85.78;29.20;;;;;;;2.87;100.00;99805.89;713823;1177;113953;-80
2021/12/30 03:14:03;;;;;;;67.37;25.03;;;;;;;2.93;100.00;99802.07;713878;1199;114920;-80
2021/12/30 03:29:06;;;;;;;70.78;27.15;;;;;;;2.93;100.00;99835.75;713786;1199;115338;-80
2021/12/30 03:44:08;;;;;;;92.40;30.35;;;;;;;2.93;100.00;99854.75;713689;1203;114212;-80
2021/12/30 03:59:10;;;;;;;77.83;28.83;;;;;;;3.02;100.00;99858.50;713804;1177;113657;-80
2021/12/30 04:14:13;;;;;;;70.38;27.10;;;;;;;2.98;100.00;99846.66;713799;1177;113621;-80
2021/12/30 04:29:15;;;;;;;79.05;27.80;;;;;;;3.08;100.00;99865.07;713770;1173;113194;-80
2021/12/30 04:44:17;;;;;;;225.73;82.88;;;;;;;3.10;100.00;99853.68;713731;1177;115067;-79
2021/12/30 04:59:19;;;;;;;71.18;30.38;;;;;;;3.11;100.00;99862.27;713850;1193;114693;-80
2021/12/30 05:14:23;;;;;;;75.55;30.13;;;;;;;3.15;100.00;99882.73;713874;1175;113767;-79
2021/12/30 05:29:25;;;;;;;78.83;30.13;;;;;;;3.18;100.00;99875.67;713824;1189;113597;-79
2021/12/30 05:44:28;;;;;;;117.90;36.08;;;;;;;3.22;100.00;99892.69;713893;1203;113943;-79
2021/12/30 05:59:30;;;;;;;68.77;27.23;;;;;;;3.23;100.00;99896.95;713826;1177;114979;-78
2021/12/30 06:14:32;;;;;;;61.53;26.25;;;;;;;3.27;100.00;99895.83;714161;1200;113769;-78
2021/12/30 06:29:35;;;;;;;76.33;30.70;;;;;;;3.23;100.00;99912.52;714067;1189;113508;-80
2021/12/30 06:44:37;;;;;;;75.53;27.20;;;;;;;3.26;100.00;99917.48;713732;1200;114015;-79
2021/12/30 06:59:39;;;;;;;166.93;79.30;;;;;;;3.31;100.00;99925.81;713902;1200;113570;-80
2021/12/30 07:14:43;;;;;;;154.28;70.90;;;;;;;3.40;100.00;99925.23;714102;1200;113287;-79
2021/12/30 07:29:45;;;;;;;146.33;56.20;;;;;;;3.57;100.00;99931.92;714708;1177;114532;-79
2021/12/30 07:44:47;;;;;;;85.47;31.27;;;;;;;3.68;100.00;99954.58;714307;1200;115280;-79
2021/12/30 07:59:53;;;;;;;113.15;44.88;;;;;;;3.82;100.00;99977.05;714268;1174;114960;-73
2021/12/30 08:14:55;;;;;;;104.98;44.13;;;;;;;3.89;100.00;99980.08;714474;1199;114210;-74
2021/12/30 08:29:57;;;;;;;111.33;41.95;;;;;;;3.88;100.00;99989.64;714235;1200;113897;-75
2021/12/30 08:45:00;;;;;;;90.58;33.35;;;;;;;3.89;100.00;99964.51;715720;1200;115284;-84
2021/12/30 09:00:06;;;;;;;76.43;30.63;;;;;;;3.89;100.00;99935.95;714845;1175;113957;-84
2021/12/30 09:15:09;;;;;;;87.85;32.60;;;;;;;3.96;100.00;99943.25;716319;1203;114137;-80
2021/12/30 09:30:13;;;;;;;66.25;23.15;;;;;;;3.96;100.00;99926.86;716272;1199;115380;-80
2021/12/30 09:45:17;;;;;;;102.63;49.50;;;;;;;4.00;100.00;99931.73;716353;1199;114471;-82
2021/12/30 10:00:22;;;;;;;58.50;22.28;;;;;;;4.09;100.00;99919.91;715691;1174;114088;-74
2021/12/30 10:15:28;;;;;;;52.38;21.70;;;;;;;4.14;100.00;99917.84;715455;1199;115346;-77
2021/12/30 10:30:32;;;;;;;57.25;24.35;;;;;;;4.22;100.00;99906.91;715432;1199;114149;-74
2021/12/30 10:45:35;;;;;;;53.03;20.80;;;;;;;4.23;100.00;99918.97;714353;1174;113813;-74
2021/12/30 11:00:38;;;;;;;60.33;21.88;;;;;;;4.33;100.00;99906.21;714372;1177;113637;-72
2021/12/30 11:15:41;;;;;;;51.50;22.93;;;;;;;4.54;100.00;99905.66;713965;1199;113739;-74
2021/12/30 11:30:44;;;;;;;39.73;18.70;;;;;;;4.62;100.00;99895.59;714287;1199;115279;-74
2021/12/30 11:45:55;;;;;;;42.30;19.70;;;;;;;4.62;100.00;99891.20;714397;1175;114193;-75
2021/12/30 13:55:37;;;;;;;98.45;40.13;;;;;;;4.78;100.00;99828.59;715597;1174;23120;-74
2021/12/30 17:53:33;;;;;;;38.73;18.18;;;;;;;5.60;100.00;99877.31;741861;1159;23113;-76
2021/12/30 18:08:36;;;;;;;46.95;21.10;;;;;;;5.56;100.00;99873.28;741445;1154;113334;-77
2021/12/30 18:23:43;;;;;;;113.88;63.08;;;;;;;5.49;100.00;99917.14;740886;1152;113399;-78
2021/12/30 18:38:47;;;;;;;57.78;27.40;;;;;;;5.58;100.00;99899.19;740491;1162;113771;-77
2021/12/30 18:53:51;;;;;;;58.40;26.17;;;;;;;5.60;100.00;99915.53;740452;1154;114032;-78
2021/12/30 19:08:53;;;;;;;58.80;26.28;;;;;;;5.70;100.00;99910.47;740945;1156;114357;-75
2021/12/30 19:23:56;;;;;;;57.10;24.27;;;;;;;5.78;100.00;99892.50;740397;1152;113322;-74
2021/12/30 19:39:00;;;;;;;51.60;22.15;;;;;;;5.75;100.00;99918.77;741373;1155;113708;-75
2021/12/30 19:54:14;;;;;;;79.78;29.68;;;;;;;5.73;100.00;99897.22;740988;1154;113594;-76
2021/12/30 20:09:19;;;;;;;55.68;24.38;;;;;;;5.65;100.00;99888.22;741069;1152;113408;-76
2021/12/30 20:24:29;;;;;;;54.93;21.83;;;;;;;5.69;100.00;99860.20;740949;1152;113517;-77
2021/12/30 20:39:35;;;;;;;67.75;26.95;;;;;;;5.72;100.00;99872.98;740350;1154;113101;-76
2021/12/30 20:54:38;;;;;;;64.00;25.87;;;;;;;5.68;100.00;99855.94;740313;1154;113527;-77
2021/12/30 21:09:43;;;;;;;79.03;32.33;;;;;;;5.77;100.00;99841.41;742021;1152;113668;-76
2021/12/30 21:24:46;;;;;;;63.63;26.20;;;;;;;5.82;100.00;99840.12;740418;1154;113765;-76
2021/12/30 21:39:49;;;;;;;53.00;20.73;;;;;;;5.94;100.00;99816.71;740334;1152;114714;-76
2021/12/30 21:54:52;;;;;;;57.25;22.28;;;;;;;6.02;100.00;99822.19;741136;1153;114075;-77
2021/12/30 22:10:01;;;;;;;59.97;23.77;;;;;;;6.27;100.00;99833.34;740469;1154;114034;-76
2021/12/30 22:25:16;;;;;;;71.65;28.00;;;;;;;6.37;100.00;99834.25;741010;1154;112775;-77
2021/12/30 22:40:19;;;;;;;57.53;21.90;;;;;;;6.56;100.00;99848.45;740655;1162;112867;-76
2021/12/30 22:55:22;;;;;;;74.20;27.20;;;;;;;6.56;100.00;99851.06;740232;1154;113817;-77
2021/12/30 23:10:24;;;;;;;52.30;23.83;;;;;;;6.55;100.00;99852.03;741201;1152;113465;-77
2021/12/30 23:25:27;;;;;;;40.50;18.15;;;;;;;6.60;100.00;99840.30;740644;1153;113521;-78
2021/12/30 23:40:30;;;;;;;39.18;18.45;;;;;;;6.62;100.00;99827.95;740308;1152;113746;-77
2021/12/30 23:55:33;;;;;;;38.75;18.28;;;;;;;6.70;100.00;99845.59;740269;1154;113620;-78
